To NAV CANADA Home Page Login to a new session Search on AWWS site Feedback and Comments Disclaimer Vers la page française équivalente Tips FAQ What's new on the site To the Forecasts and Observations / NOTAM section To "File a Flight Plan" website Publications and other links Update of the User's profile FIC Telephone Numbers My Weather Data Folder Route Weather Data Regional Weather Data Local Weather Data To the Forecasts and Observations / NOTAM section
Request Generated 04/28/2015 at 06:45:57 UTC . Weather information available at that time is displayed.

METAR/TAF

LLOYDMINSTER/AB    (show WxCam)

METAR CYLL 280600Z AUTO 21007KT 9SM CLR 07/M04 A3007 RMK SLP198=
METAR CYLL 280500Z AUTO 23006KT 9SM FEW240 06/M03 A3008 RMK SLP203=
METAR CYLL 280400Z 24005KT 15SM BKN200 10/M04 A3008 RMK CI7 LAST STFD
OBS/NEXT 281300 UTC SLP202=

TAF CYLL 280538Z 2806/2818 22006KT P6SM FEW160 SCT240
RMK FCST BASED ON AUTO OBS. NXT FCST BY 281200Z=
Your time UTC time
Weather data provided by Environment Canada and NAV CANADA